createdAt,value
2022-12-23T00:09:47.056Z,5.25
2022-12-23T00:19:50.247Z,4.60
2022-12-23T00:51:05.229Z,6.50
2022-12-23T01:01:27.264Z,6.57
2022-12-23T01:11:32.272Z,6.83
2022-12-23T01:21:35.421Z,4.10
2022-12-23T01:31:39.946Z,7.13
2022-12-23T01:42:01.473Z,4.47
2022-12-23T01:52:06.148Z,4.90
2022-12-23T02:02:27.711Z,6.90
2022-12-23T02:12:46.303Z,5.57
2022-12-23T02:23:14.480Z,6.30
2022-12-23T02:33:35.691Z,5.25
2022-12-23T02:43:46.729Z,7.10
2022-12-23T02:53:55.406Z,6.45
2022-12-23T03:03:58.677Z,6.78
2022-12-23T03:14:20.588Z,9.35
2022-12-23T03:24:35.071Z,8.23
2022-12-23T03:34:42.887Z,6.82
2022-12-23T03:45:19.150Z,7.50
2022-12-23T03:55:18.584Z,13.55
2022-12-23T04:05:27.085Z,7.43
2022-12-23T04:15:32.182Z,9.82
2022-12-23T04:25:35.233Z,10.07
2022-12-23T04:35:40.734Z,8.63
2022-12-23T04:45:44.303Z,9.15
2022-12-23T04:55:52.642Z,12.57
2022-12-23T05:05:56.070Z,10.02
2022-12-23T05:16:01.423Z,11.25
2022-12-23T05:26:05.445Z,11.20
2022-12-23T05:36:11.529Z,8.93
2022-12-23T05:46:14.830Z,8.15
2022-12-23T05:56:19.623Z,7.95
2022-12-23T06:06:25.164Z,9.75
2022-12-23T06:16:29.956Z,10.40
2022-12-23T06:26:34.217Z,8.85
2022-12-23T06:36:39.163Z,9.30
2022-12-23T06:46:42.633Z,9.55
2022-12-23T06:56:47.123Z,8.65
2022-12-23T07:06:50.402Z,10.20
2022-12-23T07:16:55.226Z,9.25
2022-12-23T07:26:58.554Z,10.55
2022-12-23T07:37:03.216Z,11.00
2022-12-23T07:47:06.531Z,11.82
2022-12-23T07:57:11.367Z,10.20
2022-12-23T08:07:14.713Z,9.45
2022-12-23T08:17:21.519Z,13.43
2022-12-23T08:27:24.741Z,12.45
2022-12-23T08:37:32.326Z,12.40
2022-12-23T08:47:35.751Z,11.98
2022-12-23T08:57:40.789Z,11.35
2022-12-23T09:07:45.670Z,11.38
2022-12-23T09:17:50.132Z,11.13
2022-12-23T09:27:54.457Z,11.30
2022-12-23T09:38:00.536Z,9.88
2022-12-23T09:48:08.243Z,11.35
2022-12-23T09:58:27.360Z,11.18
2022-12-23T10:08:36.108Z,10.93
2022-12-23T10:18:49.669Z,10.68
2022-12-23T10:28:59.895Z,10.23
2022-12-23T10:39:14.335Z,9.82
2022-12-23T10:49:29.407Z,7.85
2022-12-23T10:59:36.101Z,9.00
2022-12-23T11:09:43.189Z,8.63
2022-12-23T11:19:48.401Z,8.80
2022-12-23T11:29:55.108Z,7.45
2022-12-23T11:40:04.192Z,7.20
2022-12-23T11:50:30.759Z,7.45
2022-12-23T12:00:40.955Z,7.22
2022-12-23T12:10:45.611Z,8.82
2022-12-23T12:20:54.184Z,7.00
2022-12-23T12:31:04.113Z,8.80
2022-12-23T12:41:20.119Z,7.38
2022-12-23T12:51:28.022Z,7.70
2022-12-23T13:01:44.387Z,7.93
2022-12-23T13:11:55.272Z,7.18
2022-12-23T13:22:06.205Z,4.85
2022-12-23T13:32:30.669Z,5.78
2022-12-23T13:42:40.783Z,5.65
2022-12-23T13:53:02.501Z,5.78
2022-12-23T14:03:20.599Z,4.30
2022-12-23T14:13:27.166Z,4.60
2022-12-23T14:23:44.160Z,4.55
2022-12-23T14:33:49.731Z,4.55
2022-12-23T14:44:00.111Z,4.43
2022-12-23T14:54:15.395Z,2.72
2022-12-23T15:04:26.571Z,3.80
2022-12-23T15:14:34.787Z,4.37
2022-12-23T15:24:43.295Z,3.33
2022-12-23T15:34:48.424Z,2.95
2022-12-23T15:44:53.924Z,3.95
2022-12-23T15:55:04.442Z,3.03
2022-12-23T16:05:10.235Z,2.47
2022-12-23T16:15:27.499Z,2.90
2022-12-23T16:25:33.948Z,3.90
2022-12-23T16:35:38.968Z,4.18
2022-12-23T16:45:50.531Z,4.28
2022-12-23T16:56:00.849Z,5.40
2022-12-23T17:06:09.241Z,5.55
2022-12-23T17:16:15.685Z,5.68
2022-12-23T17:26:20.619Z,5.65
2022-12-23T17:36:23.959Z,5.78
2022-12-23T17:46:30.749Z,7.25
2022-12-23T17:56:35.495Z,7.20
2022-12-23T18:06:43.149Z,7.93
2022-12-23T18:16:48.365Z,9.18
2022-12-23T18:26:53.861Z,10.07
2022-12-23T18:36:58.731Z,7.68
2022-12-23T18:47:03.597Z,7.47
2022-12-23T18:57:07.110Z,10.57
2022-12-23T19:07:13.049Z,8.93
2022-12-23T19:17:18.204Z,8.15
2022-12-23T19:27:23.633Z,8.88
2022-12-23T19:37:27.612Z,7.55
2022-12-23T19:47:32.454Z,5.68
2022-12-23T19:57:35.438Z,5.90
2022-12-23T20:07:41.197Z,8.55
2022-12-23T20:17:47.851Z,8.40
2022-12-23T20:28:05.063Z,9.98
2022-12-23T20:38:11.534Z,9.23
2022-12-23T20:59:00.658Z,7.53
2022-12-23T21:09:12.146Z,6.82
2022-12-23T21:19:18.571Z,7.13
2022-12-23T21:29:29.807Z,7.20
2022-12-23T21:39:42.245Z,6.55
2022-12-23T21:49:46.914Z,5.85
2022-12-23T21:59:50.026Z,6.05
2022-12-23T22:09:54.785Z,6.38
2022-12-23T22:19:57.878Z,4.90
2022-12-23T22:30:02.419Z,5.18
2022-12-23T22:40:07.114Z,3.80
2022-12-23T22:50:12.579Z,4.90
2022-12-23T23:00:17.890Z,4.57
2022-12-23T23:10:22.558Z,4.53
2022-12-23T23:20:25.584Z,4.10
2022-12-23T23:30:31.646Z,3.67
2022-12-23T23:40:37.852Z,6.03
